sensor_id;sensor_type;location;lat;lon;timestamp;P1;durP1;ratioP1;P2;durP2;ratioP2
54871;SDS011;43914;57.680;11.982;2023-12-20T00:01:32;27.70;;;3.00;;
54871;SDS011;43914;57.680;11.982;2023-12-20T00:03:57;23.30;;;3.40;;
54871;SDS011;43914;57.680;11.982;2023-12-20T00:06:23;25.30;;;3.50;;
54871;SDS011;43914;57.680;11.982;2023-12-20T00:08:49;19.50;;;2.80;;
54871;SDS011;43914;57.680;11.982;2023-12-20T00:11:14;22.50;;;3.00;;
54871;SDS011;43914;57.680;11.982;2023-12-20T00:13:40;22.00;;;2.90;;
54871;SDS011;43914;57.680;11.982;2023-12-20T00:16:05;23.40;;;3.20;;
54871;SDS011;43914;57.680;11.982;2023-12-20T00:18:30;26.30;;;3.90;;
54871;SDS011;43914;57.680;11.982;2023-12-20T00:20:56;23.30;;;3.30;;
54871;SDS011;43914;57.680;11.982;2023-12-20T00:23:21;19.90;;;3.00;;
54871;SDS011;43914;57.680;11.982;2023-12-20T00:25:48;23.40;;;3.20;;
54871;SDS011;43914;57.680;11.982;2023-12-20T00:28:14;24.00;;;3.00;;
54871;SDS011;43914;57.680;11.982;2023-12-20T00:30:39;21.70;;;3.00;;
54871;SDS011;43914;57.680;11.982;2023-12-20T00:33:04;24.30;;;3.30;;
54871;SDS011;43914;57.680;11.982;2023-12-20T00:35:30;19.50;;;3.40;;
54871;SDS011;43914;57.680;11.982;2023-12-20T00:37:55;25.40;;;3.40;;
54871;SDS011;43914;57.680;11.982;2023-12-20T00:40:21;22.90;;;3.10;;
54871;SDS011;43914;57.680;11.982;2023-12-20T00:42:47;20.80;;;2.90;;
54871;SDS011;43914;57.680;11.982;2023-12-20T00:45:13;25.20;;;3.70;;
54871;SDS011;43914;57.680;11.982;2023-12-20T00:47:39;20.90;;;3.70;;
54871;SDS011;43914;57.680;11.982;2023-12-20T00:50:05;19.20;;;3.30;;
54871;SDS011;43914;57.680;11.982;2023-12-20T00:52:31;23.40;;;2.80;;
54871;SDS011;43914;57.680;11.982;2023-12-20T00:54:57;31.00;;;3.40;;
54871;SDS011;43914;57.680;11.982;2023-12-20T00:57:23;27.30;;;3.40;;
54871;SDS011;43914;57.680;11.982;2023-12-20T00:59:48;31.90;;;4.10;;
54871;SDS011;43914;57.680;11.982;2023-12-20T01:02:14;21.30;;;3.10;;
54871;SDS011;43914;57.680;11.982;2023-12-20T01:04:39;23.80;;;4.00;;
54871;SDS011;43914;57.680;11.982;2023-12-20T01:07:05;24.30;;;3.70;;
54871;SDS011;43914;57.680;11.982;2023-12-20T01:09:30;18.10;;;3.30;;
54871;SDS011;43914;57.680;11.982;2023-12-20T01:11:56;21.30;;;3.10;;
54871;SDS011;43914;57.680;11.982;2023-12-20T01:14:21;23.70;;;3.80;;
54871;SDS011;43914;57.680;11.982;2023-12-20T01:16:47;19.40;;;2.90;;
54871;SDS011;43914;57.680;11.982;2023-12-20T01:19:12;25.60;;;3.00;;
54871;SDS011;43914;57.680;11.982;2023-12-20T01:21:39;21.10;;;3.10;;
54871;SDS011;43914;57.680;11.982;2023-12-20T01:24:05;22.80;;;3.00;;
54871;SDS011;43914;57.680;11.982;2023-12-20T01:26:30;20.30;;;3.00;;
54871;SDS011;43914;57.680;11.982;2023-12-20T01:28:55;21.90;;;3.10;;
54871;SDS011;43914;57.680;11.982;2023-12-20T01:31:21;26.00;;;3.20;;
54871;SDS011;43914;57.680;11.982;2023-12-20T01:33:46;16.40;;;2.40;;
54871;SDS011;43914;57.680;11.982;2023-12-20T01:36:12;19.20;;;3.50;;
54871;SDS011;43914;57.680;11.982;2023-12-20T01:38:37;13.70;;;2.50;;
54871;SDS011;43914;57.680;11.982;2023-12-20T01:41:03;21.30;;;3.20;;
54871;SDS011;43914;57.680;11.982;2023-12-20T01:43:29;31.80;;;4.60;;
54871;SDS011;43914;57.680;11.982;2023-12-20T01:45:58;21.90;;;2.80;;
54871;SDS011;43914;57.680;11.982;2023-12-20T01:48:24;24.10;;;3.70;;
54871;SDS011;43914;57.680;11.982;2023-12-20T01:50:51;20.90;;;2.60;;
54871;SDS011;43914;57.680;11.982;2023-12-20T01:53:19;25.50;;;2.80;;
54871;SDS011;43914;57.680;11.982;2023-12-20T01:55:46;19.00;;;2.80;;
54871;SDS011;43914;57.680;11.982;2023-12-20T01:58:15;21.10;;;3.00;;
54871;SDS011;43914;57.680;11.982;2023-12-20T02:00:41;20.40;;;3.00;;
54871;SDS011;43914;57.680;11.982;2023-12-20T02:03:07;23.70;;;3.60;;
54871;SDS011;43914;57.680;11.982;2023-12-20T02:05:34;18.70;;;2.50;;
54871;SDS011;43914;57.680;11.982;2023-12-20T02:08:01;22.30;;;3.00;;
54871;SDS011;43914;57.680;11.982;2023-12-20T02:10:27;20.80;;;2.80;;
54871;SDS011;43914;57.680;11.982;2023-12-20T02:12:54;26.60;;;3.60;;
54871;SDS011;43914;57.680;11.982;2023-12-20T02:15:19;25.10;;;3.30;;
54871;SDS011;43914;57.680;11.982;2023-12-20T02:17:46;17.50;;;3.20;;
54871;SDS011;43914;57.680;11.982;2023-12-20T02:20:13;21.00;;;3.10;;
54871;SDS011;43914;57.680;11.982;2023-12-20T02:22:39;19.10;;;2.80;;
54871;SDS011;43914;57.680;11.982;2023-12-20T02:25:05;17.80;;;3.20;;
54871;SDS011;43914;57.680;11.982;2023-12-20T02:27:32;27.40;;;3.60;;
54871;SDS011;43914;57.680;11.982;2023-12-20T02:29:57;20.20;;;3.20;;
54871;SDS011;43914;57.680;11.982;2023-12-20T02:32:24;21.10;;;3.30;;
54871;SDS011;43914;57.680;11.982;2023-12-20T02:34:53;30.90;;;4.10;;
54871;SDS011;43914;57.680;11.982;2023-12-20T02:37:19;29.00;;;3.40;;
54871;SDS011;43914;57.680;11.982;2023-12-20T02:39:44;22.50;;;3.10;;
54871;SDS011;43914;57.680;11.982;2023-12-20T02:42:09;23.80;;;2.80;;
54871;SDS011;43914;57.680;11.982;2023-12-20T02:44:35;18.70;;;3.10;;
54871;SDS011;43914;57.680;11.982;2023-12-20T02:47:01;22.60;;;3.10;;
54871;SDS011;43914;57.680;11.982;2023-12-20T02:49:27;24.20;;;3.40;;
54871;SDS011;43914;57.680;11.982;2023-12-20T02:51:52;25.90;;;3.10;;
54871;SDS011;43914;57.680;11.982;2023-12-20T02:54:18;23.70;;;2.80;;
54871;SDS011;43914;57.680;11.982;2023-12-20T02:56:43;24.50;;;2.90;;
54871;SDS011;43914;57.680;11.982;2023-12-20T02:59:09;25.30;;;3.30;;
54871;SDS011;43914;57.680;11.982;2023-12-20T03:01:34;21.90;;;2.80;;
54871;SDS011;43914;57.680;11.982;2023-12-20T03:04:06;18.30;;;2.50;;
54871;SDS011;43914;57.680;11.982;2023-12-20T03:06:31;28.10;;;3.00;;
54871;SDS011;43914;57.680;11.982;2023-12-20T03:08:57;14.30;;;2.30;;
54871;SDS011;43914;57.680;11.982;2023-12-20T03:11:26;20.50;;;2.70;;
54871;SDS011;43914;57.680;11.982;2023-12-20T03:13:54;19.90;;;2.50;;
54871;SDS011;43914;57.680;11.982;2023-12-20T03:16:20;18.20;;;2.30;;
54871;SDS011;43914;57.680;11.982;2023-12-20T03:18:46;17.00;;;2.20;;
54871;SDS011;43914;57.680;11.982;2023-12-20T03:21:13;17.50;;;2.00;;
54871;SDS011;43914;57.680;11.982;2023-12-20T03:23:39;18.20;;;2.80;;
54871;SDS011;43914;57.680;11.982;2023-12-20T03:26:08;12.60;;;2.50;;
54871;SDS011;43914;57.680;11.982;2023-12-20T03:28:34;19.30;;;2.70;;
54871;SDS011;43914;57.680;11.982;2023-12-20T03:31:01;18.00;;;2.40;;
54871;SDS011;43914;57.680;11.982;2023-12-20T03:33:28;14.10;;;1.90;;
54871;SDS011;43914;57.680;11.982;2023-12-20T03:35:54;19.20;;;2.70;;
54871;SDS011;43914;57.680;11.982;2023-12-20T03:38:20;19.80;;;2.30;;
54871;SDS011;43914;57.680;11.982;2023-12-20T03:40:46;18.10;;;2.40;;
54871;SDS011;43914;57.680;11.982;2023-12-20T03:43:12;17.40;;;2.20;;
54871;SDS011;43914;57.680;11.982;2023-12-20T03:45:37;13.50;;;1.90;;
54871;SDS011;43914;57.680;11.982;2023-12-20T03:48:03;12.00;;;2.00;;
54871;SDS011;43914;57.680;11.982;2023-12-20T03:50:29;11.20;;;1.70;;
54871;SDS011;43914;57.680;11.982;2023-12-20T03:52:55;17.50;;;2.50;;
54871;SDS011;43914;57.680;11.982;2023-12-20T03:55:20;10.50;;;1.50;;
54871;SDS011;43914;57.680;11.982;2023-12-20T03:57:46;16.50;;;2.30;;
54871;SDS011;43914;57.680;11.982;2023-12-20T04:00:11;13.90;;;2.10;;
54871;SDS011;43914;57.680;11.982;2023-12-20T04:02:37;11.60;;;1.70;;
54871;SDS011;43914;57.680;11.982;2023-12-20T04:05:05;17.80;;;2.00;;
54871;SDS011;43914;57.680;11.982;2023-12-20T04:07:31;16.40;;;1.90;;
54871;SDS011;43914;57.680;11.982;2023-12-20T04:09:57;15.80;;;2.30;;
54871;SDS011;43914;57.680;11.982;2023-12-20T04:12:22;7.80;;;1.10;;
54871;SDS011;43914;57.680;11.982;2023-12-20T04:14:48;19.20;;;2.00;;
54871;SDS011;43914;57.680;11.982;2023-12-20T04:17:14;11.50;;;1.70;;
54871;SDS011;43914;57.680;11.982;2023-12-20T04:19:41;15.40;;;1.70;;
54871;SDS011;43914;57.680;11.982;2023-12-20T04:22:07;13.00;;;1.70;;
54871;SDS011;43914;57.680;11.982;2023-12-20T04:24:32;14.60;;;2.20;;
54871;SDS011;43914;57.680;11.982;2023-12-20T04:26:58;13.30;;;2.00;;
54871;SDS011;43914;57.680;11.982;2023-12-20T04:29:23;10.40;;;1.80;;
54871;SDS011;43914;57.680;11.982;2023-12-20T04:31:49;11.40;;;2.00;;
54871;SDS011;43914;57.680;11.982;2023-12-20T04:34:16;14.40;;;1.90;;
54871;SDS011;43914;57.680;11.982;2023-12-20T04:36:42;12.60;;;2.60;;
54871;SDS011;43914;57.680;11.982;2023-12-20T04:39:07;13.10;;;1.80;;
54871;SDS011;43914;57.680;11.982;2023-12-20T04:41:33;16.90;;;1.90;;
54871;SDS011;43914;57.680;11.982;2023-12-20T04:43:58;12.90;;;2.10;;
54871;SDS011;43914;57.680;11.982;2023-12-20T04:46:25;15.90;;;1.90;;
54871;SDS011;43914;57.680;11.982;2023-12-20T04:48:51;17.70;;;2.40;;
54871;SDS011;43914;57.680;11.982;2023-12-20T04:51:16;16.90;;;2.00;;
54871;SDS011;43914;57.680;11.982;2023-12-20T04:53:42;18.10;;;2.40;;
54871;SDS011;43914;57.680;11.982;2023-12-20T04:56:07;16.70;;;2.20;;
54871;SDS011;43914;57.680;11.982;2023-12-20T04:58:33;17.10;;;2.40;;
54871;SDS011;43914;57.680;11.982;2023-12-20T05:00:58;21.50;;;2.20;;
54871;SDS011;43914;57.680;11.982;2023-12-20T05:03:24;19.00;;;2.60;;
54871;SDS011;43914;57.680;11.982;2023-12-20T05:05:49;19.30;;;2.60;;
54871;SDS011;43914;57.680;11.982;2023-12-20T05:08:15;18.80;;;2.60;;
54871;SDS011;43914;57.680;11.982;2023-12-20T05:10:40;16.40;;;2.10;;
54871;SDS011;43914;57.680;11.982;2023-12-20T05:13:06;24.30;;;2.70;;
54871;SDS011;43914;57.680;11.982;2023-12-20T05:15:31;18.50;;;2.60;;
54871;SDS011;43914;57.680;11.982;2023-12-20T05:17:57;17.70;;;2.20;;
54871;SDS011;43914;57.680;11.982;2023-12-20T05:20:22;18.50;;;2.70;;
54871;SDS011;43914;57.680;11.982;2023-12-20T05:22:48;17.80;;;2.20;;
54871;SDS011;43914;57.680;11.982;2023-12-20T05:25:14;16.80;;;2.10;;
54871;SDS011;43914;57.680;11.982;2023-12-20T05:27:39;14.70;;;2.90;;
54871;SDS011;43914;57.680;11.982;2023-12-20T05:30:05;23.70;;;2.70;;
54871;SDS011;43914;57.680;11.982;2023-12-20T05:32:31;17.50;;;2.70;;
54871;SDS011;43914;57.680;11.982;2023-12-20T05:34:57;16.90;;;2.40;;
54871;SDS011;43914;57.680;11.982;2023-12-20T05:37:22;22.40;;;2.80;;
54871;SDS011;43914;57.680;11.982;2023-12-20T05:39:47;19.00;;;2.60;;
54871;SDS011;43914;57.680;11.982;2023-12-20T05:42:13;24.30;;;3.30;;
54871;SDS011;43914;57.680;11.982;2023-12-20T05:44:38;19.80;;;2.30;;
54871;SDS011;43914;57.680;11.982;2023-12-20T05:47:04;22.30;;;2.70;;
54871;SDS011;43914;57.680;11.982;2023-12-20T05:49:29;17.30;;;2.00;;
54871;SDS011;43914;57.680;11.982;2023-12-20T05:51:55;21.50;;;2.50;;
54871;SDS011;43914;57.680;11.982;2023-12-20T05:54:20;23.60;;;2.60;;
54871;SDS011;43914;57.680;11.982;2023-12-20T05:56:46;20.10;;;2.50;;
54871;SDS011;43914;57.680;11.982;2023-12-20T05:59:12;19.00;;;2.10;;
54871;SDS011;43914;57.680;11.982;2023-12-20T06:01:37;20.90;;;2.90;;
54871;SDS011;43914;57.680;11.982;2023-12-20T06:04:03;15.40;;;2.60;;
54871;SDS011;43914;57.680;11.982;2023-12-20T06:06:29;18.00;;;2.10;;
54871;SDS011;43914;57.680;11.982;2023-12-20T06:08:55;13.30;;;2.20;;
54871;SDS011;43914;57.680;11.982;2023-12-20T06:11:21;17.50;;;2.30;;
54871;SDS011;43914;57.680;11.982;2023-12-20T06:13:46;16.10;;;2.80;;
54871;SDS011;43914;57.680;11.982;2023-12-20T06:16:14;14.00;;;2.00;;
54871;SDS011;43914;57.680;11.982;2023-12-20T06:18:39;17.50;;;2.20;;
54871;SDS011;43914;57.680;11.982;2023-12-20T06:21:05;14.80;;;1.90;;
54871;SDS011;43914;57.680;11.982;2023-12-20T06:23:32;12.30;;;1.40;;
54871;SDS011;43914;57.680;11.982;2023-12-20T06:25:58;17.60;;;1.70;;
54871;SDS011;43914;57.680;11.982;2023-12-20T06:28:23;9.10;;;1.40;;
54871;SDS011;43914;57.680;11.982;2023-12-20T06:30:49;12.30;;;1.80;;
54871;SDS011;43914;57.680;11.982;2023-12-20T06:33:15;12.50;;;1.60;;
54871;SDS011;43914;57.680;11.982;2023-12-20T06:35:40;14.60;;;1.90;;
54871;SDS011;43914;57.680;11.982;2023-12-20T06:38:06;18.80;;;1.60;;
54871;SDS011;43914;57.680;11.982;2023-12-20T06:40:31;14.20;;;2.00;;
54871;SDS011;43914;57.680;11.982;2023-12-20T06:42:57;19.90;;;2.00;;
54871;SDS011;43914;57.680;11.982;2023-12-20T06:45:23;17.70;;;2.10;;
54871;SDS011;43914;57.680;11.982;2023-12-20T06:47:48;19.10;;;2.90;;
54871;SDS011;43914;57.680;11.982;2023-12-20T06:50:13;16.30;;;2.00;;
54871;SDS011;43914;57.680;11.982;2023-12-20T06:52:39;26.40;;;2.60;;
54871;SDS011;43914;57.680;11.982;2023-12-20T06:55:05;22.70;;;2.80;;
54871;SDS011;43914;57.680;11.982;2023-12-20T06:57:30;25.40;;;2.50;;
54871;SDS011;43914;57.680;11.982;2023-12-20T06:59:56;16.30;;;1.80;;
54871;SDS011;43914;57.680;11.982;2023-12-20T07:02:22;18.80;;;2.10;;
54871;SDS011;43914;57.680;11.982;2023-12-20T07:04:48;15.40;;;2.50;;
54871;SDS011;43914;57.680;11.982;2023-12-20T07:07:14;18.20;;;1.90;;
54871;SDS011;43914;57.680;11.982;2023-12-20T07:09:39;20.50;;;2.30;;
54871;SDS011;43914;57.680;11.982;2023-12-20T07:12:07;19.50;;;4.30;;
54871;SDS011;43914;57.680;11.982;2023-12-20T07:14:33;20.30;;;3.20;;
54871;SDS011;43914;57.680;11.982;2023-12-20T07:16:59;24.20;;;3.20;;
54871;SDS011;43914;57.680;11.982;2023-12-20T07:19:24;12.60;;;1.80;;
54871;SDS011;43914;57.680;11.982;2023-12-20T07:21:49;18.10;;;2.20;;
54871;SDS011;43914;57.680;11.982;2023-12-20T07:24:15;18.50;;;2.40;;
54871;SDS011;43914;57.680;11.982;2023-12-20T07:26:40;19.10;;;2.20;;
54871;SDS011;43914;57.680;11.982;2023-12-20T07:29:06;20.70;;;2.60;;
54871;SDS011;43914;57.680;11.982;2023-12-20T07:31:34;16.00;;;2.20;;
54871;SDS011;43914;57.680;11.982;2023-12-20T07:34:00;15.70;;;2.60;;
54871;SDS011;43914;57.680;11.982;2023-12-20T07:36:25;15.00;;;2.00;;
54871;SDS011;43914;57.680;11.982;2023-12-20T07:38:51;18.50;;;2.30;;
54871;SDS011;43914;57.680;11.982;2023-12-20T07:41:16;16.40;;;2.00;;
54871;SDS011;43914;57.680;11.982;2023-12-20T07:43:42;20.40;;;2.50;;
54871;SDS011;43914;57.680;11.982;2023-12-20T07:46:08;12.50;;;2.10;;
54871;SDS011;43914;57.680;11.982;2023-12-20T07:48:37;13.30;;;2.10;;
54871;SDS011;43914;57.680;11.982;2023-12-20T07:51:06;18.30;;;2.10;;
54871;SDS011;43914;57.680;11.982;2023-12-20T07:53:33;20.30;;;2.50;;
54871;SDS011;43914;57.680;11.982;2023-12-20T07:55:59;20.90;;;2.40;;
54871;SDS011;43914;57.680;11.982;2023-12-20T07:58:25;21.80;;;2.70;;
54871;SDS011;43914;57.680;11.982;2023-12-20T08:00:50;21.80;;;2.30;;
54871;SDS011;43914;57.680;11.982;2023-12-20T08:03:15;18.40;;;2.20;;
54871;SDS011;43914;57.680;11.982;2023-12-20T08:05:41;16.20;;;2.40;;
54871;SDS011;43914;57.680;11.982;2023-12-20T08:08:06;17.20;;;2.40;;
54871;SDS011;43914;57.680;11.982;2023-12-20T08:10:32;19.90;;;2.40;;
54871;SDS011;43914;57.680;11.982;2023-12-20T08:12:57;18.50;;;2.50;;
54871;SDS011;43914;57.680;11.982;2023-12-20T08:15:23;21.40;;;2.60;;
54871;SDS011;43914;57.680;11.982;2023-12-20T08:17:49;18.00;;;2.40;;
54871;SDS011;43914;57.680;11.982;2023-12-20T08:20:16;16.40;;;2.50;;
54871;SDS011;43914;57.680;11.982;2023-12-20T08:22:42;15.30;;;2.40;;
54871;SDS011;43914;57.680;11.982;2023-12-20T08:25:08;18.00;;;2.50;;
54871;SDS011;43914;57.680;11.982;2023-12-20T08:27:34;22.50;;;2.70;;
54871;SDS011;43914;57.680;11.982;2023-12-20T08:30:03;16.70;;;2.10;;
54871;SDS011;43914;57.680;11.982;2023-12-20T08:32:29;23.80;;;2.70;;
54871;SDS011;43914;57.680;11.982;2023-12-20T08:34:54;22.70;;;2.50;;
54871;SDS011;43914;57.680;11.982;2023-12-20T08:37:20;17.80;;;2.30;;
54871;SDS011;43914;57.680;11.982;2023-12-20T08:39:45;16.30;;;2.20;;
54871;SDS011;43914;57.680;11.982;2023-12-20T08:42:11;17.30;;;2.30;;
54871;SDS011;43914;57.680;11.982;2023-12-20T08:44:36;19.60;;;2.40;;
54871;SDS011;43914;57.680;11.982;2023-12-20T08:47:02;23.00;;;2.60;;
54871;SDS011;43914;57.680;11.982;2023-12-20T08:49:27;20.60;;;3.30;;
54871;SDS011;43914;57.680;11.982;2023-12-20T08:51:53;17.60;;;2.30;;
54871;SDS011;43914;57.680;11.982;2023-12-20T08:54:18;21.90;;;2.70;;
54871;SDS011;43914;57.680;11.982;2023-12-20T08:56:44;24.10;;;3.00;;
54871;SDS011;43914;57.680;11.982;2023-12-20T08:59:11;30.40;;;3.00;;
54871;SDS011;43914;57.680;11.982;2023-12-20T09:01:37;24.10;;;3.00;;
54871;SDS011;43914;57.680;11.982;2023-12-20T09:04:02;17.80;;;2.50;;
54871;SDS011;43914;57.680;11.982;2023-12-20T09:06:28;16.20;;;2.50;;
54871;SDS011;43914;57.680;11.982;2023-12-20T09:08:53;23.60;;;3.10;;
54871;SDS011;43914;57.680;11.982;2023-12-20T09:11:19;24.90;;;3.00;;
54871;SDS011;43914;57.680;11.982;2023-12-20T09:13:44;22.10;;;3.00;;
54871;SDS011;43914;57.680;11.982;2023-12-20T09:16:10;26.10;;;3.40;;
54871;SDS011;43914;57.680;11.982;2023-12-20T09:18:35;21.40;;;2.70;;
54871;SDS011;43914;57.680;11.982;2023-12-20T09:21:01;23.80;;;3.50;;
54871;SDS011;43914;57.680;11.982;2023-12-20T09:23:27;23.30;;;2.60;;
54871;SDS011;43914;57.680;11.982;2023-12-20T09:25:52;18.40;;;2.50;;
54871;SDS011;43914;57.680;11.982;2023-12-20T09:28:18;29.20;;;3.50;;
54871;SDS011;43914;57.680;11.982;2023-12-20T09:30:44;20.10;;;3.00;;
54871;SDS011;43914;57.680;11.982;2023-12-20T09:33:11;20.60;;;2.80;;
54871;SDS011;43914;57.680;11.982;2023-12-20T09:35:37;22.00;;;3.00;;
54871;SDS011;43914;57.680;11.982;2023-12-20T09:38:03;17.60;;;3.00;;
54871;SDS011;43914;57.680;11.982;2023-12-20T09:40:29;21.90;;;3.70;;
54871;SDS011;43914;57.680;11.982;2023-12-20T09:42:57;24.70;;;4.60;;
54871;SDS011;43914;57.680;11.982;2023-12-20T09:45:28;26.40;;;3.20;;
54871;SDS011;43914;57.680;11.982;2023-12-20T09:47:56;23.80;;;3.50;;
54871;SDS011;43914;57.680;11.982;2023-12-20T09:50:24;18.90;;;2.90;;
54871;SDS011;43914;57.680;11.982;2023-12-20T09:52:51;29.70;;;3.60;;
54871;SDS011;43914;57.680;11.982;2023-12-20T09:55:18;19.70;;;3.00;;
54871;SDS011;43914;57.680;11.982;2023-12-20T09:57:45;24.10;;;3.10;;
54871;SDS011;43914;57.680;11.982;2023-12-20T10:00:12;21.50;;;3.40;;
54871;SDS011;43914;57.680;11.982;2023-12-20T10:02:40;22.50;;;3.40;;
54871;SDS011;43914;57.680;11.982;2023-12-20T10:05:10;25.60;;;3.40;;
54871;SDS011;43914;57.680;11.982;2023-12-20T10:07:45;31.50;;;3.90;;
54871;SDS011;43914;57.680;11.982;2023-12-20T10:10:12;31.20;;;3.90;;
54871;SDS011;43914;57.680;11.982;2023-12-20T10:12:40;25.00;;;3.60;;
54871;SDS011;43914;57.680;11.982;2023-12-20T10:15:05;20.30;;;3.40;;
54871;SDS011;43914;57.680;11.982;2023-12-20T10:17:32;30.60;;;4.60;;
54871;SDS011;43914;57.680;11.982;2023-12-20T10:19:58;26.60;;;3.50;;
54871;SDS011;43914;57.680;11.982;2023-12-20T10:22:24;26.40;;;3.40;;
54871;SDS011;43914;57.680;11.982;2023-12-20T10:24:50;26.40;;;4.10;;
54871;SDS011;43914;57.680;11.982;2023-12-20T10:27:15;24.30;;;3.90;;
54871;SDS011;43914;57.680;11.982;2023-12-20T10:29:44;23.00;;;3.40;;
54871;SDS011;43914;57.680;11.982;2023-12-20T10:32:23;19.70;;;3.30;;
54871;SDS011;43914;57.680;11.982;2023-12-20T10:34:50;22.90;;;3.30;;
54871;SDS011;43914;57.680;11.982;2023-12-20T10:37:16;18.20;;;2.80;;
54871;SDS011;43914;57.680;11.982;2023-12-20T10:39:43;27.10;;;3.40;;
54871;SDS011;43914;57.680;11.982;2023-12-20T10:42:09;23.00;;;3.60;;
54871;SDS011;43914;57.680;11.982;2023-12-20T10:44:37;28.50;;;3.70;;
54871;SDS011;43914;57.680;11.982;2023-12-20T10:47:03;27.50;;;4.30;;
54871;SDS011;43914;57.680;11.982;2023-12-20T10:49:29;21.20;;;4.20;;
54871;SDS011;43914;57.680;11.982;2023-12-20T10:51:56;24.40;;;3.60;;
54871;SDS011;43914;57.680;11.982;2023-12-20T10:54:25;21.70;;;3.70;;
54871;SDS011;43914;57.680;11.982;2023-12-20T10:56:51;23.60;;;4.20;;
54871;SDS011;43914;57.680;11.982;2023-12-20T10:59:19;20.90;;;4.40;;
54871;SDS011;43914;57.680;11.982;2023-12-20T11:01:45;22.40;;;4.30;;
54871;SDS011;43914;57.680;11.982;2023-12-20T11:04:15;28.00;;;4.40;;
54871;SDS011;43914;57.680;11.982;2023-12-20T11:06:49;21.00;;;3.80;;
54871;SDS011;43914;57.680;11.982;2023-12-20T11:09:26;26.50;;;4.70;;
54871;SDS011;43914;57.680;11.982;2023-12-20T11:12:01;24.00;;;4.60;;
54871;SDS011;43914;57.680;11.982;2023-12-20T11:14:34;33.30;;;4.60;;
54871;SDS011;43914;57.680;11.982;2023-12-20T11:17:12;24.00;;;4.70;;
54871;SDS011;43914;57.680;11.982;2023-12-20T11:22:22;31.70;;;5.00;;
54871;SDS011;43914;57.680;11.982;2023-12-20T11:24:52;22.70;;;4.70;;
54871;SDS011;43914;57.680;11.982;2023-12-20T11:27:18;29.60;;;5.30;;
54871;SDS011;43914;57.680;11.982;2023-12-20T11:29:51;21.20;;;4.50;;
54871;SDS011;43914;57.680;11.982;2023-12-20T11:34:50;28.80;;;5.80;;
54871;SDS011;43914;57.680;11.982;2023-12-20T11:37:16;28.30;;;5.50;;
54871;SDS011;43914;57.680;11.982;2023-12-20T11:39:44;32.70;;;5.40;;
54871;SDS011;43914;57.680;11.982;2023-12-20T11:42:10;23.80;;;5.80;;
54871;SDS011;43914;57.680;11.982;2023-12-20T11:44:36;28.00;;;5.80;;
54871;SDS011;43914;57.680;11.982;2023-12-20T11:47:02;27.80;;;6.20;;
54871;SDS011;43914;57.680;11.982;2023-12-20T11:49:28;20.50;;;6.40;;
54871;SDS011;43914;57.680;11.982;2023-12-20T11:51:56;22.20;;;5.50;;
54871;SDS011;43914;57.680;11.982;2023-12-20T11:54:22;25.60;;;6.00;;
54871;SDS011;43914;57.680;11.982;2023-12-20T11:56:48;19.60;;;5.80;;
54871;SDS011;43914;57.680;11.982;2023-12-20T11:59:13;20.80;;;6.00;;
54871;SDS011;43914;57.680;11.982;2023-12-20T12:01:39;28.30;;;6.30;;
54871;SDS011;43914;57.680;11.982;2023-12-20T12:04:05;21.70;;;5.60;;
54871;SDS011;43914;57.680;11.982;2023-12-20T12:06:31;17.50;;;5.50;;
54871;SDS011;43914;57.680;11.982;2023-12-20T12:08:57;25.70;;;6.30;;
54871;SDS011;43914;57.680;11.982;2023-12-20T12:11:23;18.00;;;5.40;;
54871;SDS011;43914;57.680;11.982;2023-12-20T12:13:49;17.90;;;5.50;;
54871;SDS011;43914;57.680;11.982;2023-12-20T12:16:17;18.90;;;5.50;;
54871;SDS011;43914;57.680;11.982;2023-12-20T12:18:46;15.60;;;4.60;;
54871;SDS011;43914;57.680;11.982;2023-12-20T12:21:20;16.00;;;4.80;;
54871;SDS011;43914;57.680;11.982;2023-12-20T12:23:46;22.80;;;5.60;;
54871;SDS011;43914;57.680;11.982;2023-12-20T12:26:11;22.50;;;5.50;;
54871;SDS011;43914;57.680;11.982;2023-12-20T12:28:39;21.60;;;5.00;;
54871;SDS011;43914;57.680;11.982;2023-12-20T12:31:05;16.80;;;4.40;;
54871;SDS011;43914;57.680;11.982;2023-12-20T12:33:31;21.40;;;5.20;;
54871;SDS011;43914;57.680;11.982;2023-12-20T12:35:56;18.30;;;4.40;;
54871;SDS011;43914;57.680;11.982;2023-12-20T12:38:22;22.00;;;4.70;;
54871;SDS011;43914;57.680;11.982;2023-12-20T12:40:49;15.50;;;4.20;;
54871;SDS011;43914;57.680;11.982;2023-12-20T12:43:15;18.20;;;4.30;;
54871;SDS011;43914;57.680;11.982;2023-12-20T12:45:41;17.10;;;4.10;;
54871;SDS011;43914;57.680;11.982;2023-12-20T12:48:06;16.70;;;4.60;;
54871;SDS011;43914;57.680;11.982;2023-12-20T12:50:32;16.90;;;4.00;;
54871;SDS011;43914;57.680;11.982;2023-12-20T12:52:57;20.70;;;4.30;;
54871;SDS011;43914;57.680;11.982;2023-12-20T12:55:23;12.60;;;3.50;;
54871;SDS011;43914;57.680;11.982;2023-12-20T12:57:49;17.10;;;3.90;;
54871;SDS011;43914;57.680;11.982;2023-12-20T13:00:14;17.90;;;3.80;;
54871;SDS011;43914;57.680;11.982;2023-12-20T13:02:40;12.90;;;3.60;;
54871;SDS011;43914;57.680;11.982;2023-12-20T13:05:08;14.70;;;4.30;;
54871;SDS011;43914;57.680;11.982;2023-12-20T13:07:34;12.70;;;3.70;;
54871;SDS011;43914;57.680;11.982;2023-12-20T13:10:00;17.40;;;4.30;;
54871;SDS011;43914;57.680;11.982;2023-12-20T13:12:26;24.60;;;5.00;;
54871;SDS011;43914;57.680;11.982;2023-12-20T13:14:51;12.10;;;3.10;;
54871;SDS011;43914;57.680;11.982;2023-12-20T13:17:17;13.50;;;3.60;;
54871;SDS011;43914;57.680;11.982;2023-12-20T13:19:42;11.50;;;4.10;;
54871;SDS011;43914;57.680;11.982;2023-12-20T13:22:08;13.70;;;4.00;;
54871;SDS011;43914;57.680;11.982;2023-12-20T13:24:34;16.50;;;4.40;;
54871;SDS011;43914;57.680;11.982;2023-12-20T13:26:59;12.80;;;3.90;;
54871;SDS011;43914;57.680;11.982;2023-12-20T13:29:25;16.70;;;4.30;;
54871;SDS011;43914;57.680;11.982;2023-12-20T13:31:53;15.00;;;4.10;;
54871;SDS011;43914;57.680;11.982;2023-12-20T13:34:19;16.70;;;4.50;;
54871;SDS011;43914;57.680;11.982;2023-12-20T13:36:45;15.70;;;4.00;;
54871;SDS011;43914;57.680;11.982;2023-12-20T13:39:12;15.10;;;4.10;;
54871;SDS011;43914;57.680;11.982;2023-12-20T13:41:39;14.40;;;3.40;;
54871;SDS011;43914;57.680;11.982;2023-12-20T13:44:04;13.60;;;4.00;;
54871;SDS011;43914;57.680;11.982;2023-12-20T13:46:30;15.70;;;4.20;;
54871;SDS011;43914;57.680;11.982;2023-12-20T13:48:56;16.00;;;4.10;;
54871;SDS011;43914;57.680;11.982;2023-12-20T13:51:22;12.40;;;4.30;;
54871;SDS011;43914;57.680;11.982;2023-12-20T13:53:47;12.10;;;4.20;;
54871;SDS011;43914;57.680;11.982;2023-12-20T13:56:14;10.80;;;3.70;;
54871;SDS011;43914;57.680;11.982;2023-12-20T13:58:40;14.60;;;4.00;;
54871;SDS011;43914;57.680;11.982;2023-12-20T14:01:07;13.60;;;4.20;;
54871;SDS011;43914;57.680;11.982;2023-12-20T14:03:33;12.00;;;4.50;;
54871;SDS011;43914;57.680;11.982;2023-12-20T14:05:59;13.20;;;4.20;;
54871;SDS011;43914;57.680;11.982;2023-12-20T14:08:26;12.90;;;4.10;;
54871;SDS011;43914;57.680;11.982;2023-12-20T14:10:52;15.20;;;4.60;;
54871;SDS011;43914;57.680;11.982;2023-12-20T14:13:18;15.90;;;4.10;;
54871;SDS011;43914;57.680;11.982;2023-12-20T14:15:44;14.50;;;4.20;;
54871;SDS011;43914;57.680;11.982;2023-12-20T14:18:09;19.10;;;4.40;;
54871;SDS011;43914;57.680;11.982;2023-12-20T14:20:37;15.80;;;4.40;;